Meteo Giornale » Osservazioni meteo Stati Uniti (USA) » New York Kennedy AP

ore: 13:32 - Osservazioni Meteo New York Kennedy AP
Lat. 40° 38' N Lon. 73° 45' W Alt. 3 metri s.l.m.

foschia

24 °C

Foschia

Temp. 24 Ore

22 °C

26 °C

Nord

5.5 Km/h

Dew point 23 °C

Umidità 94 %

Visibilità  6 Km

Il sole sorge alle ore 06:22

Il sole tramonta alle ore 19:27

Data e Ora Cielo e Fenomeni T °C DP °C Um. % Pres. hPa Vis. km Vento km/h
Oggi h: 13:32 foschia Foschia 24 23 94 1015 6 N 5.5
Oggi h: 12:51 coperto_pioggia Pioggia Foschia 23 23 100 1015 5 S/SO 14.8
Oggi h: 11:51 coperto_pioggia Pioggia Foschia 23 22 94 1016 5 N 5.5
Oggi h: 11:31 coperto_pioggia Pioggia Foschia 23 22 94 1016 6 S 7.4
Oggi h: 10:51 foschia Foschia 24 22 88 1016 8 N 0
Oggi h: 09:51 foschia Foschia 23 22 94 1016 6 O/SO 7.4
Oggi h: 09:24 foschia Foschia 23 22 94 1016 6 S/SO 7.4
Oggi h: 08:51 foschia Foschia 23 22 94 1016 6 S/SO 11.1
Oggi h: 07:51 coperto_pioggia Pioggia Foschia 23 22 94 1016 8 S/SO 9.3
Oggi h: 06:51 foschia Foschia 22 22 100 1016 10 O/SO 11.1
Oggi h: 05:51 coperto Coperto 23 21 88 1016 10 S 7.4
Oggi h: 04:51 coperto_pioggia Pioggia 22 21 94 1016 14 SO 9.3
Oggi h: 03:51 coperto Coperto 22 21 94 1016 10 N 5.5
Oggi h: 02:51 coperto Coperto 22 20 88 1017 10 S 11.1
Oggi h: 01:51 coperto_pioggia Pioggia 22 20 88 1017 14 S/SO 11.1
Oggi h: 01:05 coperto_pioggia Pioggia 22 20 88 1017 10 S/SO 14.8
Oggi h: 00:51 coperto Coperto 22 20 88 1018 10 S 13
Ieri h: 23:51 coperto Coperto 22 19 83 1018 10 S 11.1
Ieri h: 22:51 coperto Coperto 22 19 83 1018 10 S 9.3
Ieri h: 21:51 coperto Coperto 22 19 83 1018 10 S/SE 9.3
Ieri h: 20:51 coperto Coperto 22 19 83 1018 10 S/SE 13
Ieri h: 19:51 molto_nuvoloso Molto Nuvoloso 22 19 83 1018 10 SE 11.1
Ieri h: 18:51 nuvoloso Nuvoloso 22 18 78 1018 10 S/SE 7.4
Ieri h: 17:51 nuvoloso Nuvoloso 23 18 73 1019 10 S/SE 11.1
Ieri h: 16:51 nuvoloso Nuvoloso 23 18 73 1019 10 S 13
Ieri h: 15:51 molto_nuvoloso Molto Nuvoloso 23 18 73 1019 10 S/SE 14.8
Ieri h: 14:51 molto_nuvoloso Molto Nuvoloso 25 18 65 1020 10 S/SE 18.5
Ieri h: 13:51 nuvoloso Nuvoloso 26 17 57 1020 10 S/SE 13